sensor_id;sensor_type;location;lat;lon;timestamp;temperature;humidity
9881;DHT22;4979;51.014;6.678;2024-02-23T00:01:31;7.20;99.90
9881;DHT22;4979;51.014;6.678;2024-02-23T00:03:56;7.20;99.90
9881;DHT22;4979;51.014;6.678;2024-02-23T00:06:22;7.10;99.90
9881;DHT22;4979;51.014;6.678;2024-02-23T00:08:53;7.10;99.90
9881;DHT22;4979;51.014;6.678;2024-02-23T00:11:20;7.10;99.90
9881;DHT22;4979;51.014;6.678;2024-02-23T00:13:47;7.10;99.90
9881;DHT22;4979;51.014;6.678;2024-02-23T00:16:12;7.00;99.90
9881;DHT22;4979;51.014;6.678;2024-02-23T00:18:38;7.00;99.90
9881;DHT22;4979;51.014;6.678;2024-02-23T00:21:04;7.00;99.90
9881;DHT22;4979;51.014;6.678;2024-02-23T00:23:29;6.90;99.90
9881;DHT22;4979;51.014;6.678;2024-02-23T00:25:55;6.90;99.90
9881;DHT22;4979;51.014;6.678;2024-02-23T00:28:21;6.80;99.90
9881;DHT22;4979;51.014;6.678;2024-02-23T00:30:46;6.70;99.90
9881;DHT22;4979;51.014;6.678;2024-02-23T00:33:12;6.70;99.90
9881;DHT22;4979;51.014;6.678;2024-02-23T00:35:37;6.70;99.90
9881;DHT22;4979;51.014;6.678;2024-02-23T00:38:03;6.60;99.90
9881;DHT22;4979;51.014;6.678;2024-02-23T00:40:29;6.60;99.90
9881;DHT22;4979;51.014;6.678;2024-02-23T00:42:54;6.60;99.90
9881;DHT22;4979;51.014;6.678;2024-02-23T00:45:20;6.60;99.90
9881;DHT22;4979;51.014;6.678;2024-02-23T00:47:46;6.60;99.90
9881;DHT22;4979;51.014;6.678;2024-02-23T00:50:12;6.50;99.90
9881;DHT22;4979;51.014;6.678;2024-02-23T00:52:38;6.50;99.90
9881;DHT22;4979;51.014;6.678;2024-02-23T00:55:04;6.50;99.90
9881;DHT22;4979;51.014;6.678;2024-02-23T00:57:29;6.50;99.90
9881;DHT22;4979;51.014;6.678;2024-02-23T00:59:58;6.50;99.90
9881;DHT22;4979;51.014;6.678;2024-02-23T01:02:24;6.50;99.90
9881;DHT22;4979;51.014;6.678;2024-02-23T01:04:49;6.50;99.90
9881;DHT22;4979;51.014;6.678;2024-02-23T01:07:15;6.50;99.90
9881;DHT22;4979;51.014;6.678;2024-02-23T01:09:41;6.40;99.90
9881;DHT22;4979;51.014;6.678;2024-02-23T01:12:06;6.40;99.90
9881;DHT22;4979;51.014;6.678;2024-02-23T01:14:32;6.40;99.90
9881;DHT22;4979;51.014;6.678;2024-02-23T01:16:57;6.40;99.90
9881;DHT22;4979;51.014;6.678;2024-02-23T01:19:23;6.40;99.90
9881;DHT22;4979;51.014;6.678;2024-02-23T01:21:49;6.40;99.90
9881;DHT22;4979;51.014;6.678;2024-02-23T01:24:21;6.30;99.90
9881;DHT22;4979;51.014;6.678;2024-02-23T01:26:46;6.30;99.90
9881;DHT22;4979;51.014;6.678;2024-02-23T01:29:12;6.30;99.90
9881;DHT22;4979;51.014;6.678;2024-02-23T01:31:37;6.30;99.90
9881;DHT22;4979;51.014;6.678;2024-02-23T01:34:03;6.30;99.90
9881;DHT22;4979;51.014;6.678;2024-02-23T01:36:28;6.20;99.90
9881;DHT22;4979;51.014;6.678;2024-02-23T01:38:54;6.20;99.90
9881;DHT22;4979;51.014;6.678;2024-02-23T01:41:20;6.10;99.90
9881;DHT22;4979;51.014;6.678;2024-02-23T01:43:45;6.10;99.90
9881;DHT22;4979;51.014;6.678;2024-02-23T01:46:11;6.00;99.90
9881;DHT22;4979;51.014;6.678;2024-02-23T01:48:37;6.00;99.90
9881;DHT22;4979;51.014;6.678;2024-02-23T01:51:03;6.10;99.90
9881;DHT22;4979;51.014;6.678;2024-02-23T01:53:28;6.00;99.90
9881;DHT22;4979;51.014;6.678;2024-02-23T01:55:55;6.00;99.90
9881;DHT22;4979;51.014;6.678;2024-02-23T01:58:21;6.00;99.90
9881;DHT22;4979;51.014;6.678;2024-02-23T02:00:46;6.00;99.90
9881;DHT22;4979;51.014;6.678;2024-02-23T02:03:12;5.90;99.90
9881;DHT22;4979;51.014;6.678;2024-02-23T02:05:38;5.90;99.90
9881;DHT22;4979;51.014;6.678;2024-02-23T02:08:04;5.90;99.90
9881;DHT22;4979;51.014;6.678;2024-02-23T02:10:30;5.90;99.90
9881;DHT22;4979;51.014;6.678;2024-02-23T02:12:55;5.90;99.90
9881;DHT22;4979;51.014;6.678;2024-02-23T02:15:26;5.90;99.90
9881;DHT22;4979;51.014;6.678;2024-02-23T02:17:52;5.90;99.90
9881;DHT22;4979;51.014;6.678;2024-02-23T02:20:18;5.90;99.90
9881;DHT22;4979;51.014;6.678;2024-02-23T02:22:43;5.90;99.90
9881;DHT22;4979;51.014;6.678;2024-02-23T02:25:09;5.80;99.90
9881;DHT22;4979;51.014;6.678;2024-02-23T02:27:35;5.80;99.90
9881;DHT22;4979;51.014;6.678;2024-02-23T02:30:00;5.80;99.90
9881;DHT22;4979;51.014;6.678;2024-02-23T02:32:26;5.80;99.90
9881;DHT22;4979;51.014;6.678;2024-02-23T02:34:51;5.80;99.90
9881;DHT22;4979;51.014;6.678;2024-02-23T02:37:17;5.80;99.90
9881;DHT22;4979;51.014;6.678;2024-02-23T02:39:42;5.80;99.90
9881;DHT22;4979;51.014;6.678;2024-02-23T02:42:08;5.80;99.90
9881;DHT22;4979;51.014;6.678;2024-02-23T02:44:34;5.80;99.90
9881;DHT22;4979;51.014;6.678;2024-02-23T02:47:00;5.80;99.90
9881;DHT22;4979;51.014;6.678;2024-02-23T02:49:26;5.80;99.90
9881;DHT22;4979;51.014;6.678;2024-02-23T02:51:51;5.80;99.90
9881;DHT22;4979;51.014;6.678;2024-02-23T02:54:17;5.80;99.90
9881;DHT22;4979;51.014;6.678;2024-02-23T02:56:43;5.80;99.90
9881;DHT22;4979;51.014;6.678;2024-02-23T02:59:11;5.80;99.90
9881;DHT22;4979;51.014;6.678;2024-02-23T03:01:36;5.80;99.90
9881;DHT22;4979;51.014;6.678;2024-02-23T03:04:02;5.80;99.90
9881;DHT22;4979;51.014;6.678;2024-02-23T03:06:27;5.80;99.90
9881;DHT22;4979;51.014;6.678;2024-02-23T03:08:53;5.80;99.90
9881;DHT22;4979;51.014;6.678;2024-02-23T03:11:18;5.80;99.90
9881;DHT22;4979;51.014;6.678;2024-02-23T03:13:44;5.80;99.90
9881;DHT22;4979;51.014;6.678;2024-02-23T03:16:17;5.80;99.90
9881;DHT22;4979;51.014;6.678;2024-02-23T03:18:42;5.80;99.90
9881;DHT22;4979;51.014;6.678;2024-02-23T03:21:08;5.80;99.90
9881;DHT22;4979;51.014;6.678;2024-02-23T03:23:35;5.80;99.90
9881;DHT22;4979;51.014;6.678;2024-02-23T03:26:01;5.80;99.90
9881;DHT22;4979;51.014;6.678;2024-02-23T03:28:26;5.70;99.90
9881;DHT22;4979;51.014;6.678;2024-02-23T03:30:52;5.80;99.90
9881;DHT22;4979;51.014;6.678;2024-02-23T03:33:18;5.80;99.90
9881;DHT22;4979;51.014;6.678;2024-02-23T03:35:43;5.80;99.90
9881;DHT22;4979;51.014;6.678;2024-02-23T03:38:09;5.70;99.90
9881;DHT22;4979;51.014;6.678;2024-02-23T03:40:34;5.80;99.90
9881;DHT22;4979;51.014;6.678;2024-02-23T03:43:01;5.70;99.90
9881;DHT22;4979;51.014;6.678;2024-02-23T03:45:27;5.80;99.90
9881;DHT22;4979;51.014;6.678;2024-02-23T03:47:53;5.70;99.90
9881;DHT22;4979;51.014;6.678;2024-02-23T03:50:19;5.80;99.90
9881;DHT22;4979;51.014;6.678;2024-02-23T03:52:44;5.80;99.90
9881;DHT22;4979;51.014;6.678;2024-02-23T03:55:10;5.80;99.90
9881;DHT22;4979;51.014;6.678;2024-02-23T03:57:36;5.70;99.90
9881;DHT22;4979;51.014;6.678;2024-02-23T04:00:03;5.80;99.90
9881;DHT22;4979;51.014;6.678;2024-02-23T04:02:28;5.90;99.90
9881;DHT22;4979;51.014;6.678;2024-02-23T04:04:54;5.90;99.90
9881;DHT22;4979;51.014;6.678;2024-02-23T04:07:20;5.90;99.90
9881;DHT22;4979;51.014;6.678;2024-02-23T04:09:46;6.00;99.90
9881;DHT22;4979;51.014;6.678;2024-02-23T04:12:20;6.00;99.90
9881;DHT22;4979;51.014;6.678;2024-02-23T04:14:46;6.00;99.90
9881;DHT22;4979;51.014;6.678;2024-02-23T04:17:12;6.00;99.90
9881;DHT22;4979;51.014;6.678;2024-02-23T04:19:39;6.00;99.90
9881;DHT22;4979;51.014;6.678;2024-02-23T04:22:06;6.00;99.90
9881;DHT22;4979;51.014;6.678;2024-02-23T04:24:34;6.10;99.90
9881;DHT22;4979;51.014;6.678;2024-02-23T04:26:59;6.10;99.90
9881;DHT22;4979;51.014;6.678;2024-02-23T04:29:25;6.10;99.90
9881;DHT22;4979;51.014;6.678;2024-02-23T04:31:50;6.10;99.90
9881;DHT22;4979;51.014;6.678;2024-02-23T04:34:16;6.10;99.90
9881;DHT22;4979;51.014;6.678;2024-02-23T04:36:42;6.10;99.90
9881;DHT22;4979;51.014;6.678;2024-02-23T04:39:07;6.10;99.90
9881;DHT22;4979;51.014;6.678;2024-02-23T04:41:33;6.10;99.90
9881;DHT22;4979;51.014;6.678;2024-02-23T04:43:59;6.10;99.90
9881;DHT22;4979;51.014;6.678;2024-02-23T04:46:26;6.10;99.90
9881;DHT22;4979;51.014;6.678;2024-02-23T04:48:52;6.20;99.90
9881;DHT22;4979;51.014;6.678;2024-02-23T04:51:17;6.10;99.90
9881;DHT22;4979;51.014;6.678;2024-02-23T04:53:43;6.10;99.90
9881;DHT22;4979;51.014;6.678;2024-02-23T04:56:09;6.00;99.90
9881;DHT22;4979;51.014;6.678;2024-02-23T04:58:35;6.10;99.90
9881;DHT22;4979;51.014;6.678;2024-02-23T05:01:01;6.10;99.90
9881;DHT22;4979;51.014;6.678;2024-02-23T05:03:28;6.00;99.90
9881;DHT22;4979;51.014;6.678;2024-02-23T05:05:54;6.00;99.90
9881;DHT22;4979;51.014;6.678;2024-02-23T05:08:20;6.00;99.90
9881;DHT22;4979;51.014;6.678;2024-02-23T05:10:46;6.00;99.90
9881;DHT22;4979;51.014;6.678;2024-02-23T05:13:13;6.00;99.90
9881;DHT22;4979;51.014;6.678;2024-02-23T05:15:38;6.00;99.90
9881;DHT22;4979;51.014;6.678;2024-02-23T05:18:04;6.00;99.90
9881;DHT22;4979;51.014;6.678;2024-02-23T05:20:30;6.00;99.90
9881;DHT22;4979;51.014;6.678;2024-02-23T05:22:56;6.00;99.90
9881;DHT22;4979;51.014;6.678;2024-02-23T05:25:21;5.90;99.90
9881;DHT22;4979;51.014;6.678;2024-02-23T05:27:47;5.90;99.90
9881;DHT22;4979;51.014;6.678;2024-02-23T05:30:13;6.00;99.90
9881;DHT22;4979;51.014;6.678;2024-02-23T05:32:38;5.90;99.90
9881;DHT22;4979;51.014;6.678;2024-02-23T05:35:04;5.90;99.90
9881;DHT22;4979;51.014;6.678;2024-02-23T05:37:30;5.90;99.90
9881;DHT22;4979;51.014;6.678;2024-02-23T05:39:55;5.90;99.90
9881;DHT22;4979;51.014;6.678;2024-02-23T05:42:21;5.90;99.90
9881;DHT22;4979;51.014;6.678;2024-02-23T05:44:47;5.90;99.90
9881;DHT22;4979;51.014;6.678;2024-02-23T05:47:14;5.90;99.90
9881;DHT22;4979;51.014;6.678;2024-02-23T05:49:39;5.90;99.90
9881;DHT22;4979;51.014;6.678;2024-02-23T05:52:05;5.90;99.90
9881;DHT22;4979;51.014;6.678;2024-02-23T05:54:31;6.00;99.90
9881;DHT22;4979;51.014;6.678;2024-02-23T05:56:56;6.00;99.90
9881;DHT22;4979;51.014;6.678;2024-02-23T05:59:22;6.00;99.90
9881;DHT22;4979;51.014;6.678;2024-02-23T06:01:47;6.00;99.90
9881;DHT22;4979;51.014;6.678;2024-02-23T06:04:13;6.00;99.90
9881;DHT22;4979;51.014;6.678;2024-02-23T06:06:41;6.00;99.90
9881;DHT22;4979;51.014;6.678;2024-02-23T06:09:08;6.00;99.90
9881;DHT22;4979;51.014;6.678;2024-02-23T06:11:34;6.00;99.90
9881;DHT22;4979;51.014;6.678;2024-02-23T06:13:59;6.00;99.90
9881;DHT22;4979;51.014;6.678;2024-02-23T06:16:25;6.00;99.90
9881;DHT22;4979;51.014;6.678;2024-02-23T06:18:50;6.00;99.90
9881;DHT22;4979;51.014;6.678;2024-02-23T06:21:17;6.00;99.90
9881;DHT22;4979;51.014;6.678;2024-02-23T06:23:43;6.00;99.90
9881;DHT22;4979;51.014;6.678;2024-02-23T06:26:09;6.00;99.90
9881;DHT22;4979;51.014;6.678;2024-02-23T06:28:35;6.00;99.90
9881;DHT22;4979;51.014;6.678;2024-02-23T06:31:03;5.90;99.90
9881;DHT22;4979;51.014;6.678;2024-02-23T06:33:30;5.90;99.90
9881;DHT22;4979;51.014;6.678;2024-02-23T06:35:55;5.90;99.90
9881;DHT22;4979;51.014;6.678;2024-02-23T06:38:21;5.90;99.90
9881;DHT22;4979;51.014;6.678;2024-02-23T06:40:47;5.80;99.90
9881;DHT22;4979;51.014;6.678;2024-02-23T06:43:12;5.80;99.90
9881;DHT22;4979;51.014;6.678;2024-02-23T06:45:38;5.90;99.90
9881;DHT22;4979;51.014;6.678;2024-02-23T06:48:04;5.80;99.90
9881;DHT22;4979;51.014;6.678;2024-02-23T06:50:30;5.90;99.90
9881;DHT22;4979;51.014;6.678;2024-02-23T06:52:56;5.90;99.90
9881;DHT22;4979;51.014;6.678;2024-02-23T06:55:21;6.00;99.90
9881;DHT22;4979;51.014;6.678;2024-02-23T06:57:47;5.90;99.90
9881;DHT22;4979;51.014;6.678;2024-02-23T07:00:13;5.90;99.90
9881;DHT22;4979;51.014;6.678;2024-02-23T07:02:38;5.90;99.90
9881;DHT22;4979;51.014;6.678;2024-02-23T07:05:04;5.90;99.90
9881;DHT22;4979;51.014;6.678;2024-02-23T07:07:31;5.90;99.90
9881;DHT22;4979;51.014;6.678;2024-02-23T07:10:01;6.00;99.90
9881;DHT22;4979;51.014;6.678;2024-02-23T07:12:27;6.00;99.90
9881;DHT22;4979;51.014;6.678;2024-02-23T07:14:54;5.90;99.90
9881;DHT22;4979;51.014;6.678;2024-02-23T07:17:20;5.90;99.90
9881;DHT22;4979;51.014;6.678;2024-02-23T07:19:46;5.80;99.90
9881;DHT22;4979;51.014;6.678;2024-02-23T07:22:12;5.90;99.90
9881;DHT22;4979;51.014;6.678;2024-02-23T07:24:41;5.90;99.90
9881;DHT22;4979;51.014;6.678;2024-02-23T07:27:06;5.90;99.90
9881;DHT22;4979;51.014;6.678;2024-02-23T07:29:32;6.00;99.90
9881;DHT22;4979;51.014;6.678;2024-02-23T07:31:57;6.00;99.90
9881;DHT22;4979;51.014;6.678;2024-02-23T07:34:23;6.10;99.90
9881;DHT22;4979;51.014;6.678;2024-02-23T07:36:52;6.10;99.90
9881;DHT22;4979;51.014;6.678;2024-02-23T07:39:18;6.10;99.90
9881;DHT22;4979;51.014;6.678;2024-02-23T07:41:43;6.10;99.90
9881;DHT22;4979;51.014;6.678;2024-02-23T07:44:09;6.30;99.90
9881;DHT22;4979;51.014;6.678;2024-02-23T07:46:34;7.80;99.90
9881;DHT22;4979;51.014;6.678;2024-02-23T07:49:00;6.50;99.90
9881;DHT22;4979;51.014;6.678;2024-02-23T07:51:25;6.50;99.90
9881;DHT22;4979;51.014;6.678;2024-02-23T07:53:51;6.60;99.90
9881;DHT22;4979;51.014;6.678;2024-02-23T07:56:16;6.60;99.90
9881;DHT22;4979;51.014;6.678;2024-02-23T07:58:42;6.70;99.90
9881;DHT22;4979;51.014;6.678;2024-02-23T08:01:08;6.90;99.90
9881;DHT22;4979;51.014;6.678;2024-02-23T08:03:34;7.00;99.90
9881;DHT22;4979;51.014;6.678;2024-02-23T08:05:59;7.00;99.90
9881;DHT22;4979;51.014;6.678;2024-02-23T08:08:26;7.00;99.90
9881;DHT22;4979;51.014;6.678;2024-02-23T08:10:53;7.00;99.90
9881;DHT22;4979;51.014;6.678;2024-02-23T08:13:18;7.00;99.90
9881;DHT22;4979;51.014;6.678;2024-02-23T08:15:44;7.10;99.90
9881;DHT22;4979;51.014;6.678;2024-02-23T08:18:10;7.20;99.90
9881;DHT22;4979;51.014;6.678;2024-02-23T08:20:36;7.20;99.90
9881;DHT22;4979;51.014;6.678;2024-02-23T08:23:01;7.20;99.90
9881;DHT22;4979;51.014;6.678;2024-02-23T08:25:27;7.20;99.90
9881;DHT22;4979;51.014;6.678;2024-02-23T08:27:56;7.40;99.90
9881;DHT22;4979;51.014;6.678;2024-02-23T08:30:22;7.60;99.90
9881;DHT22;4979;51.014;6.678;2024-02-23T08:32:47;7.60;99.90
9881;DHT22;4979;51.014;6.678;2024-02-23T08:35:13;7.70;99.90
9881;DHT22;4979;51.014;6.678;2024-02-23T08:37:40;7.80;99.90
9881;DHT22;4979;51.014;6.678;2024-02-23T08:40:08;7.90;99.90
9881;DHT22;4979;51.014;6.678;2024-02-23T08:42:34;7.80;99.90
9881;DHT22;4979;51.014;6.678;2024-02-23T08:44:59;7.70;99.90
9881;DHT22;4979;51.014;6.678;2024-02-23T08:47:25;7.70;99.90
9881;DHT22;4979;51.014;6.678;2024-02-23T08:49:53;7.80;99.90
9881;DHT22;4979;51.014;6.678;2024-02-23T08:52:19;7.70;99.90
9881;DHT22;4979;51.014;6.678;2024-02-23T08:54:44;7.60;99.90
9881;DHT22;4979;51.014;6.678;2024-02-23T08:57:10;7.60;99.90
9881;DHT22;4979;51.014;6.678;2024-02-23T08:59:35;7.50;99.90
9881;DHT22;4979;51.014;6.678;2024-02-23T09:02:01;7.50;99.90
9881;DHT22;4979;51.014;6.678;2024-02-23T09:04:27;7.50;99.90
9881;DHT22;4979;51.014;6.678;2024-02-23T09:06:53;7.70;99.90
9881;DHT22;4979;51.014;6.678;2024-02-23T09:09:19;7.70;99.90
9881;DHT22;4979;51.014;6.678;2024-02-23T09:11:44;7.80;99.90
9881;DHT22;4979;51.014;6.678;2024-02-23T09:14:10;7.90;99.90
9881;DHT22;4979;51.014;6.678;2024-02-23T09:16:35;8.00;99.90
9881;DHT22;4979;51.014;6.678;2024-02-23T09:19:01;7.90;99.90
9881;DHT22;4979;51.014;6.678;2024-02-23T09:21:26;7.90;99.90
9881;DHT22;4979;51.014;6.678;2024-02-23T09:23:52;7.90;99.90
9881;DHT22;4979;51.014;6.678;2024-02-23T09:26:18;8.20;99.90
9881;DHT22;4979;51.014;6.678;2024-02-23T09:28:43;8.30;99.90
9881;DHT22;4979;51.014;6.678;2024-02-23T09:31:10;8.30;99.90
9881;DHT22;4979;51.014;6.678;2024-02-23T09:33:36;8.30;99.90
9881;DHT22;4979;51.014;6.678;2024-02-23T09:36:02;8.20;99.90
9881;DHT22;4979;51.014;6.678;2024-02-23T09:38:28;8.20;99.90
9881;DHT22;4979;51.014;6.678;2024-02-23T09:40:53;8.40;99.90
9881;DHT22;4979;51.014;6.678;2024-02-23T09:43:21;8.40;99.90
9881;DHT22;4979;51.014;6.678;2024-02-23T09:45:51;8.40;99.90
9881;DHT22;4979;51.014;6.678;2024-02-23T09:48:18;8.40;99.90
9881;DHT22;4979;51.014;6.678;2024-02-23T09:50:45;8.50;99.90
9881;DHT22;4979;51.014;6.678;2024-02-23T09:53:13;8.40;99.90
9881;DHT22;4979;51.014;6.678;2024-02-23T09:55:38;8.40;99.90
9881;DHT22;4979;51.014;6.678;2024-02-23T09:58:04;7.00;99.90
9881;DHT22;4979;51.014;6.678;2024-02-23T10:00:32;8.90;99.90
9881;DHT22;4979;51.014;6.678;2024-02-23T10:03:00;8.70;99.90
9881;DHT22;4979;51.014;6.678;2024-02-23T10:05:30;8.60;99.90
9881;DHT22;4979;51.014;6.678;2024-02-23T10:07:56;8.70;99.90
9881;DHT22;4979;51.014;6.678;2024-02-23T10:10:30;8.80;99.90
9881;DHT22;4979;51.014;6.678;2024-02-23T10:12:57;8.80;99.90
9881;DHT22;4979;51.014;6.678;2024-02-23T10:15:23;8.80;99.90
9881;DHT22;4979;51.014;6.678;2024-02-23T10:17:48;9.20;99.90
9881;DHT22;4979;51.014;6.678;2024-02-23T10:20:14;9.20;99.90
9881;DHT22;4979;51.014;6.678;2024-02-23T10:22:39;9.30;99.90
9881;DHT22;4979;51.014;6.678;2024-02-23T10:25:05;9.10;99.90
9881;DHT22;4979;51.014;6.678;2024-02-23T10:27:31;9.10;99.90
9881;DHT22;4979;51.014;6.678;2024-02-23T10:29:56;9.00;99.90
9881;DHT22;4979;51.014;6.678;2024-02-23T10:32:23;9.00;99.90
9881;DHT22;4979;51.014;6.678;2024-02-23T10:34:49;8.90;99.90
9881;DHT22;4979;51.014;6.678;2024-02-23T10:37:16;8.90;99.90
9881;DHT22;4979;51.014;6.678;2024-02-23T10:39:42;8.90;99.90
9881;DHT22;4979;51.014;6.678;2024-02-23T10:42:09;8.80;99.90
9881;DHT22;4979;51.014;6.678;2024-02-23T10:44:37;8.90;99.90
9881;DHT22;4979;51.014;6.678;2024-02-23T10:47:04;8.90;99.90
9881;DHT22;4979;51.014;6.678;2024-02-23T10:49:31;8.80;99.90
9881;DHT22;4979;51.014;6.678;2024-02-23T10:51:57;8.70;99.90
9881;DHT22;4979;51.014;6.678;2024-02-23T10:54:22;8.70;99.90
9881;DHT22;4979;51.014;6.678;2024-02-23T10:56:50;8.70;99.90
9881;DHT22;4979;51.014;6.678;2024-02-23T10:59:17;8.70;99.90
9881;DHT22;4979;51.014;6.678;2024-02-23T11:01:46;8.70;99.90
9881;DHT22;4979;51.014;6.678;2024-02-23T11:04:13;8.70;99.90
9881;DHT22;4979;51.014;6.678;2024-02-23T11:06:39;8.70;99.90
9881;DHT22;4979;51.014;6.678;2024-02-23T11:09:06;8.70;99.90
9881;DHT22;4979;51.014;6.678;2024-02-23T11:11:36;8.70;99.90
9881;DHT22;4979;51.014;6.678;2024-02-23T11:14:03;8.60;99.90
9881;DHT22;4979;51.014;6.678;2024-02-23T11:16:32;8.70;99.90
9881;DHT22;4979;51.014;6.678;2024-02-23T11:19:05;8.90;99.90
9881;DHT22;4979;51.014;6.678;2024-02-23T11:21:34;9.00;99.90
9881;DHT22;4979;51.014;6.678;2024-02-23T11:24:03;8.90;99.90
9881;DHT22;4979;51.014;6.678;2024-02-23T11:26:29;9.00;99.90
9881;DHT22;4979;51.014;6.678;2024-02-23T11:28:55;9.00;99.90
9881;DHT22;4979;51.014;6.678;2024-02-23T11:31:22;9.10;99.90
9881;DHT22;4979;51.014;6.678;2024-02-23T11:33:55;9.10;99.90
9881;DHT22;4979;51.014;6.678;2024-02-23T11:36:23;9.10;99.90
9881;DHT22;4979;51.014;6.678;2024-02-23T11:38:52;9.20;99.90
9881;DHT22;4979;51.014;6.678;2024-02-23T11:41:20;9.20;99.90
9881;DHT22;4979;51.014;6.678;2024-02-23T11:43:46;9.20;99.90
9881;DHT22;4979;51.014;6.678;2024-02-23T11:46:12;9.10;99.90
9881;DHT22;4979;51.014;6.678;2024-02-23T11:48:38;9.10;99.90
9881;DHT22;4979;51.014;6.678;2024-02-23T11:51:03;9.10;99.90
9881;DHT22;4979;51.014;6.678;2024-02-23T11:53:29;9.20;99.90
9881;DHT22;4979;51.014;6.678;2024-02-23T11:55:55;9.10;99.90
9881;DHT22;4979;51.014;6.678;2024-02-23T11:58:21;9.10;99.90
9881;DHT22;4979;51.014;6.678;2024-02-23T12:00:46;9.30;99.90
9881;DHT22;4979;51.014;6.678;2024-02-23T12:03:13;9.30;99.90
9881;DHT22;4979;51.014;6.678;2024-02-23T12:05:39;9.20;99.90
9881;DHT22;4979;51.014;6.678;2024-02-23T12:08:04;9.10;99.90
9881;DHT22;4979;51.014;6.678;2024-02-23T12:10:30;9.10;99.90
9881;DHT22;4979;51.014;6.678;2024-02-23T12:12:56;9.10;99.90
9881;DHT22;4979;51.014;6.678;2024-02-23T12:15:22;9.10;99.90
9881;DHT22;4979;51.014;6.678;2024-02-23T12:17:48;9.00;99.90
9881;DHT22;4979;51.014;6.678;2024-02-23T12:20:14;9.00;99.90
9881;DHT22;4979;51.014;6.678;2024-02-23T12:22:42;9.10;99.90
9881;DHT22;4979;51.014;6.678;2024-02-23T12:25:08;9.10;99.90
9881;DHT22;4979;51.014;6.678;2024-02-23T12:27:35;9.20;99.90
9881;DHT22;4979;51.014;6.678;2024-02-23T12:30:00;9.30;99.90
9881;DHT22;4979;51.014;6.678;2024-02-23T12:32:26;9.30;99.90
9881;DHT22;4979;51.014;6.678;2024-02-23T12:34:52;9.50;99.90
9881;DHT22;4979;51.014;6.678;2024-02-23T12:37:18;9.60;99.90
9881;DHT22;4979;51.014;6.678;2024-02-23T12:39:44;9.70;99.90
9881;DHT22;4979;51.014;6.678;2024-02-23T12:42:10;9.70;99.90
9881;DHT22;4979;51.014;6.678;2024-02-23T12:44:35;10.10;99.90
9881;DHT22;4979;51.014;6.678;2024-02-23T12:47:01;9.50;99.90
9881;DHT22;4979;51.014;6.678;2024-02-23T12:49:26;9.40;99.90
9881;DHT22;4979;51.014;6.678;2024-02-23T12:51:52;9.50;99.90
9881;DHT22;4979;51.014;6.678;2024-02-23T12:54:18;9.40;99.90
9881;DHT22;4979;51.014;6.678;2024-02-23T12:56:43;9.60;99.90
9881;DHT22;4979;51.014;6.678;2024-02-23T12:59:09;9.60;99.90
9881;DHT22;4979;51.014;6.678;2024-02-23T13:01:35;9.70;99.90
9881;DHT22;4979;51.014;6.678;2024-02-23T13:04:03;9.70;99.90
9881;DHT22;4979;51.014;6.678;2024-02-23T13:06:37;9.80;99.90
9881;DHT22;4979;51.014;6.678;2024-02-23T13:09:03;9.60;99.90
9881;DHT22;4979;51.014;6.678;2024-02-23T13:11:29;9.70;99.90
9881;DHT22;4979;51.014;6.678;2024-02-23T13:13:55;9.70;99.90
9881;DHT22;4979;51.014;6.678;2024-02-23T13:16:20;9.80;99.90
9881;DHT22;4979;51.014;6.678;2024-02-23T13:18:46;9.80;99.90
9881;DHT22;4979;51.014;6.678;2024-02-23T13:21:12;9.80;99.90
9881;DHT22;4979;51.014;6.678;2024-02-23T13:23:38;9.80;99.90
9881;DHT22;4979;51.014;6.678;2024-02-23T13:26:05;9.90;99.90
9881;DHT22;4979;51.014;6.678;2024-02-23T13:28:30;9.90;99.90
9881;DHT22;4979;51.014;6.678;2024-02-23T13:30:56;10.00;99.90
9881;DHT22;4979;51.014;6.678;2024-02-23T13:33:21;10.00;99.90
9881;DHT22;4979;51.014;6.678;2024-02-23T13:35:49;10.00;99.90
9881;DHT22;4979;51.014;6.678;2024-02-23T13:38:15;10.00;99.90
9881;DHT22;4979;51.014;6.678;2024-02-23T13:40:40;9.90;99.90
9881;DHT22;4979;51.014;6.678;2024-02-23T13:43:06;10.00;99.90
9881;DHT22;4979;51.014;6.678;2024-02-23T13:45:32;9.90;99.90
9881;DHT22;4979;51.014;6.678;2024-02-23T13:48:01;10.00;99.90
9881;DHT22;4979;51.014;6.678;2024-02-23T13:50:27;9.90;99.90
9881;DHT22;4979;51.014;6.678;2024-02-23T13:52:54;9.90;99.90
9881;DHT22;4979;51.014;6.678;2024-02-23T13:55:19;9.80;99.90
9881;DHT22;4979;51.014;6.678;2024-02-23T13:57:48;10.00;99.90
9881;DHT22;4979;51.014;6.678;2024-02-23T14:00:16;9.90;99.90
9881;DHT22;4979;51.014;6.678;2024-02-23T14:02:41;9.90;99.90
9881;DHT22;4979;51.014;6.678;2024-02-23T14:05:07;10.00;99.90
9881;DHT22;4979;51.014;6.678;2024-02-23T14:07:34;9.90;99.90
9881;DHT22;4979;51.014;6.678;2024-02-23T14:09:59;10.00;99.90
9881;DHT22;4979;51.014;6.678;2024-02-23T14:12:25;9.90;99.90
9881;DHT22;4979;51.014;6.678;2024-02-23T14:14:51;9.80;99.90
9881;DHT22;4979;51.014;6.678;2024-02-23T14:17:17;9.90;99.90
9881;DHT22;4979;51.014;6.678;2024-02-23T14:19:42;10.00;99.90
9881;DHT22;4979;51.014;6.678;2024-02-23T14:22:08;10.00;99.90
9881;DHT22;4979;51.014;6.678;2024-02-23T14:24:33;9.90;99.90
9881;DHT22;4979;51.014;6.678;2024-02-23T14:26:59;9.90;99.90
9881;DHT22;4979;51.014;6.678;2024-02-23T14:29:24;9.90;99.90
9881;DHT22;4979;51.014;6.678;2024-02-23T14:31:50;9.80;99.90
9881;DHT22;4979;51.014;6.678;2024-02-23T14:34:16;9.80;99.90
9881;DHT22;4979;51.014;6.678;2024-02-23T14:36:41;9.80;99.90
9881;DHT22;4979;51.014;6.678;2024-02-23T14:39:09;9.70;99.90
9881;DHT22;4979;51.014;6.678;2024-02-23T14:41:35;9.70;99.90
9881;DHT22;4979;51.014;6.678;2024-02-23T14:44:01;9.60;99.90
9881;DHT22;4979;51.014;6.678;2024-02-23T14:46:26;9.70;99.90
9881;DHT22;4979;51.014;6.678;2024-02-23T14:48:52;9.70;99.90
9881;DHT22;4979;51.014;6.678;2024-02-23T14:51:19;9.70;99.90
9881;DHT22;4979;51.014;6.678;2024-02-23T14:53:44;9.70;99.90
9881;DHT22;4979;51.014;6.678;2024-02-23T14:56:10;9.70;99.90
9881;DHT22;4979;51.014;6.678;2024-02-23T14:58:35;9.70;99.90
9881;DHT22;4979;51.014;6.678;2024-02-23T15:01:01;9.60;99.90
9881;DHT22;4979;51.014;6.678;2024-02-23T15:03:27;9.60;99.90
9881;DHT22;4979;51.014;6.678;2024-02-23T15:05:52;9.60;99.90
9881;DHT22;4979;51.014;6.678;2024-02-23T15:08:18;9.60;99.90
9881;DHT22;4979;51.014;6.678;2024-02-23T15:10:43;9.50;99.90
9881;DHT22;4979;51.014;6.678;2024-02-23T15:13:09;9.60;99.90
9881;DHT22;4979;51.014;6.678;2024-02-23T15:15:35;9.60;99.90
9881;DHT22;4979;51.014;6.678;2024-02-23T15:18:06;9.50;99.90
9881;DHT22;4979;51.014;6.678;2024-02-23T15:20:31;9.50;99.90
9881;DHT22;4979;51.014;6.678;2024-02-23T15:22:57;9.20;99.90
9881;DHT22;4979;51.014;6.678;2024-02-23T15:25:23;9.10;99.90
9881;DHT22;4979;51.014;6.678;2024-02-23T15:27:48;9.10;99.90
9881;DHT22;4979;51.014;6.678;2024-02-23T15:30:15;9.20;99.90
9881;DHT22;4979;51.014;6.678;2024-02-23T15:32:41;9.20;99.90
9881;DHT22;4979;51.014;6.678;2024-02-23T15:35:07;9.20;99.90
9881;DHT22;4979;51.014;6.678;2024-02-23T15:37:33;9.30;99.90
9881;DHT22;4979;51.014;6.678;2024-02-23T15:39:59;9.10;99.90
9881;DHT22;4979;51.014;6.678;2024-02-23T15:42:24;9.10;99.90
9881;DHT22;4979;51.014;6.678;2024-02-23T15:44:50;9.10;99.90
9881;DHT22;4979;51.014;6.678;2024-02-23T15:47:16;9.10;99.90
9881;DHT22;4979;51.014;6.678;2024-02-23T15:49:41;9.10;99.90
9881;DHT22;4979;51.014;6.678;2024-02-23T15:52:07;9.10;99.90
9881;DHT22;4979;51.014;6.678;2024-02-23T15:54:33;9.00;99.90
9881;DHT22;4979;51.014;6.678;2024-02-23T15:56:59;9.00;99.90
9881;DHT22;4979;51.014;6.678;2024-02-23T15:59:26;9.10;99.90
9881;DHT22;4979;51.014;6.678;2024-02-23T16:01:51;9.10;99.90
9881;DHT22;4979;51.014;6.678;2024-02-23T16:04:17;9.00;99.90
9881;DHT22;4979;51.014;6.678;2024-02-23T16:06:43;9.00;99.90
9881;DHT22;4979;51.014;6.678;2024-02-23T16:09:09;8.90;99.90